sensor_id;sensor_type;location;lat;lon;timestamp;P1;durP1;ratioP1;P2;durP2;ratioP2
2035;SDS011;23642;42.658;23.350;2024-02-23T00:02:15;128.97;;;120.10;;
2035;SDS011;23642;42.658;23.350;2024-02-23T00:04:42;124.43;;;116.10;;
2035;SDS011;23642;42.658;23.350;2024-02-23T00:07:10;125.43;;;117.20;;
2035;SDS011;23642;42.658;23.350;2024-02-23T00:09:38;126.80;;;118.17;;
2035;SDS011;23642;42.658;23.350;2024-02-23T00:12:05;125.17;;;116.77;;
2035;SDS011;23642;42.658;23.350;2024-02-23T00:14:33;124.83;;;116.90;;
2035;SDS011;23642;42.658;23.350;2024-02-23T00:17:01;126.00;;;117.60;;
2035;SDS011;23642;42.658;23.350;2024-02-23T00:19:29;121.97;;;114.40;;
2035;SDS011;23642;42.658;23.350;2024-02-23T00:21:57;123.40;;;115.40;;
2035;SDS011;23642;42.658;23.350;2024-02-23T00:24:24;123.50;;;115.50;;
2035;SDS011;23642;42.658;23.350;2024-02-23T00:26:53;124.50;;;116.50;;
2035;SDS011;23642;42.658;23.350;2024-02-23T00:29:20;121.57;;;113.97;;
2035;SDS011;23642;42.658;23.350;2024-02-23T00:31:47;126.63;;;118.40;;
2035;SDS011;23642;42.658;23.350;2024-02-23T00:34:14;121.17;;;112.90;;
2035;SDS011;23642;42.658;23.350;2024-02-23T00:36:42;123.00;;;115.00;;
2035;SDS011;23642;42.658;23.350;2024-02-23T00:39:10;124.07;;;116.30;;
2035;SDS011;23642;42.658;23.350;2024-02-23T00:41:37;120.60;;;113.07;;
2035;SDS011;23642;42.658;23.350;2024-02-23T00:44:05;121.70;;;114.00;;
2035;SDS011;23642;42.658;23.350;2024-02-23T00:46:32;120.07;;;112.57;;
2035;SDS011;23642;42.658;23.350;2024-02-23T00:49:00;121.20;;;113.50;;
2035;SDS011;23642;42.658;23.350;2024-02-23T00:51:27;123.50;;;115.70;;
2035;SDS011;23642;42.658;23.350;2024-02-23T00:53:54;119.50;;;112.00;;
2035;SDS011;23642;42.658;23.350;2024-02-23T00:56:24;120.40;;;112.93;;
2035;SDS011;23642;42.658;23.350;2024-02-23T00:59:03;123.00;;;115.33;;
2035;SDS011;23642;42.658;23.350;2024-02-23T01:01:31;122.30;;;114.60;;
2035;SDS011;23642;42.658;23.350;2024-02-23T01:03:58;122.00;;;114.40;;
2035;SDS011;23642;42.658;23.350;2024-02-23T01:06:26;122.20;;;114.50;;
2035;SDS011;23642;42.658;23.350;2024-02-23T01:08:53;119.57;;;111.97;;
2035;SDS011;23642;42.658;23.350;2024-02-23T01:11:20;122.17;;;114.47;;
2035;SDS011;23642;42.658;23.350;2024-02-23T01:13:47;124.20;;;115.60;;
2035;SDS011;23642;42.658;23.350;2024-02-23T01:16:16;122.17;;;114.10;;
2035;SDS011;23642;42.658;23.350;2024-02-23T01:18:43;121.60;;;114.00;;
2035;SDS011;23642;42.658;23.350;2024-02-23T01:21:10;124.63;;;116.80;;
2035;SDS011;23642;42.658;23.350;2024-02-23T01:23:37;122.77;;;115.27;;
2035;SDS011;23642;42.658;23.350;2024-02-23T01:26:03;122.67;;;115.13;;
2035;SDS011;23642;42.658;23.350;2024-02-23T01:28:30;122.30;;;114.90;;
2035;SDS011;23642;42.658;23.350;2024-02-23T01:30:58;120.97;;;113.57;;
2035;SDS011;23642;42.658;23.350;2024-02-23T01:33:27;122.63;;;115.10;;
2035;SDS011;23642;42.658;23.350;2024-02-23T01:35:56;123.57;;;115.80;;
2035;SDS011;23642;42.658;23.350;2024-02-23T01:38:23;122.40;;;114.93;;
2035;SDS011;23642;42.658;23.350;2024-02-23T01:40:54;123.47;;;115.57;;
2035;SDS011;23642;42.658;23.350;2024-02-23T01:43:22;127.90;;;119.80;;
2035;SDS011;23642;42.658;23.350;2024-02-23T01:45:51;123.80;;;116.20;;
2035;SDS011;23642;42.658;23.350;2024-02-23T01:48:19;121.57;;;114.17;;
2035;SDS011;23642;42.658;23.350;2024-02-23T01:50:49;121.63;;;113.77;;
2035;SDS011;23642;42.658;23.350;2024-02-23T01:53:17;123.77;;;116.13;;
2035;SDS011;23642;42.658;23.350;2024-02-23T01:55:45;123.57;;;115.43;;
2035;SDS011;23642;42.658;23.350;2024-02-23T01:58:13;120.30;;;112.93;;
2035;SDS011;23642;42.658;23.350;2024-02-23T02:00:41;122.87;;;115.10;;
2035;SDS011;23642;42.658;23.350;2024-02-23T02:03:08;121.20;;;113.70;;
2035;SDS011;23642;42.658;23.350;2024-02-23T02:05:35;119.50;;;112.10;;
2035;SDS011;23642;42.658;23.350;2024-02-23T02:08:05;122.90;;;115.20;;
2035;SDS011;23642;42.658;23.350;2024-02-23T02:10:32;122.17;;;114.57;;
2035;SDS011;23642;42.658;23.350;2024-02-23T02:13:01;123.57;;;115.83;;
2035;SDS011;23642;42.658;23.350;2024-02-23T02:15:29;123.03;;;115.47;;
2035;SDS011;23642;42.658;23.350;2024-02-23T02:17:56;121.40;;;114.10;;
2035;SDS011;23642;42.658;23.350;2024-02-23T02:20:24;120.00;;;112.70;;
2035;SDS011;23642;42.658;23.350;2024-02-23T02:22:52;120.13;;;112.67;;
2035;SDS011;23642;42.658;23.350;2024-02-23T02:25:20;122.17;;;114.67;;
2035;SDS011;23642;42.658;23.350;2024-02-23T02:27:47;121.50;;;114.00;;
2035;SDS011;23642;42.658;23.350;2024-02-23T02:30:14;122.20;;;114.63;;
2035;SDS011;23642;42.658;23.350;2024-02-23T02:32:41;121.70;;;114.27;;
2035;SDS011;23642;42.658;23.350;2024-02-23T02:35:09;122.70;;;114.63;;
2035;SDS011;23642;42.658;23.350;2024-02-23T02:37:37;121.67;;;114.03;;
2035;SDS011;23642;42.658;23.350;2024-02-23T02:40:05;121.50;;;113.80;;
2035;SDS011;23642;42.658;23.350;2024-02-23T02:42:34;120.97;;;113.40;;
2035;SDS011;23642;42.658;23.350;2024-02-23T02:45:01;122.37;;;114.57;;
2035;SDS011;23642;42.658;23.350;2024-02-23T02:47:32;122.20;;;114.60;;
2035;SDS011;23642;42.658;23.350;2024-02-23T02:49:59;121.40;;;113.70;;
2035;SDS011;23642;42.658;23.350;2024-02-23T02:52:26;123.33;;;115.77;;
2035;SDS011;23642;42.658;23.350;2024-02-23T02:54:53;120.67;;;112.67;;
2035;SDS011;23642;42.658;23.350;2024-02-23T02:57:23;121.30;;;113.70;;
2035;SDS011;23642;42.658;23.350;2024-02-23T02:59:51;122.77;;;114.93;;
2035;SDS011;23642;42.658;23.350;2024-02-23T03:02:20;123.07;;;115.47;;
2035;SDS011;23642;42.658;23.350;2024-02-23T03:04:47;121.33;;;113.97;;
2035;SDS011;23642;42.658;23.350;2024-02-23T03:07:14;124.87;;;116.50;;
2035;SDS011;23642;42.658;23.350;2024-02-23T03:09:41;123.47;;;115.37;;
2035;SDS011;23642;42.658;23.350;2024-02-23T03:12:08;122.30;;;114.60;;
2035;SDS011;23642;42.658;23.350;2024-02-23T03:14:35;124.70;;;117.00;;
2035;SDS011;23642;42.658;23.350;2024-02-23T03:17:04;124.07;;;116.13;;
2035;SDS011;23642;42.658;23.350;2024-02-23T03:19:31;125.10;;;116.70;;
2035;SDS011;23642;42.658;23.350;2024-02-23T03:21:58;123.80;;;116.00;;
2035;SDS011;23642;42.658;23.350;2024-02-23T03:24:25;123.70;;;115.30;;
2035;SDS011;23642;42.658;23.350;2024-02-23T03:26:51;124.80;;;116.83;;
2035;SDS011;23642;42.658;23.350;2024-02-23T03:29:20;126.10;;;118.10;;
2035;SDS011;23642;42.658;23.350;2024-02-23T03:31:49;125.90;;;117.90;;
2035;SDS011;23642;42.658;23.350;2024-02-23T03:34:17;122.80;;;115.07;;
2035;SDS011;23642;42.658;23.350;2024-02-23T03:36:46;125.37;;;117.57;;
2035;SDS011;23642;42.658;23.350;2024-02-23T03:39:13;124.67;;;116.87;;
2035;SDS011;23642;42.658;23.350;2024-02-23T03:41:40;124.10;;;116.40;;
2035;SDS011;23642;42.658;23.350;2024-02-23T03:44:07;127.93;;;119.37;;
2035;SDS011;23642;42.658;23.350;2024-02-23T03:46:33;123.47;;;115.70;;
2035;SDS011;23642;42.658;23.350;2024-02-23T03:49:00;123.30;;;115.30;;
2035;SDS011;23642;42.658;23.350;2024-02-23T03:51:29;125.60;;;117.33;;
2035;SDS011;23642;42.658;23.350;2024-02-23T03:53:58;125.33;;;117.50;;
2035;SDS011;23642;42.658;23.350;2024-02-23T03:56:24;126.20;;;117.83;;
2035;SDS011;23642;42.658;23.350;2024-02-23T03:58:51;124.90;;;116.83;;
2035;SDS011;23642;42.658;23.350;2024-02-23T04:01:19;125.83;;;117.63;;
2035;SDS011;23642;42.658;23.350;2024-02-23T04:03:46;125.50;;;117.50;;
2035;SDS011;23642;42.658;23.350;2024-02-23T04:06:13;125.77;;;117.33;;
2035;SDS011;23642;42.658;23.350;2024-02-23T04:08:42;126.77;;;118.87;;
2035;SDS011;23642;42.658;23.350;2024-02-23T04:11:12;124.67;;;116.47;;
2035;SDS011;23642;42.658;23.350;2024-02-23T04:13:39;126.03;;;117.77;;
2035;SDS011;23642;42.658;23.350;2024-02-23T04:16:06;122.23;;;114.70;;
2035;SDS011;23642;42.658;23.350;2024-02-23T04:18:33;127.17;;;119.20;;
2035;SDS011;23642;42.658;23.350;2024-02-23T04:21:02;126.77;;;118.50;;
2035;SDS011;23642;42.658;23.350;2024-02-23T04:23:30;125.97;;;117.53;;
2035;SDS011;23642;42.658;23.350;2024-02-23T04:26:00;126.07;;;117.90;;
2035;SDS011;23642;42.658;23.350;2024-02-23T04:28:28;126.67;;;118.07;;
2035;SDS011;23642;42.658;23.350;2024-02-23T04:30:58;126.50;;;118.60;;
2035;SDS011;23642;42.658;23.350;2024-02-23T04:33:25;129.37;;;120.60;;
2035;SDS011;23642;42.658;23.350;2024-02-23T04:35:52;129.30;;;120.50;;
2035;SDS011;23642;42.658;23.350;2024-02-23T04:38:20;122.73;;;115.00;;
2035;SDS011;23642;42.658;23.350;2024-02-23T04:40:47;126.63;;;118.67;;
2035;SDS011;23642;42.658;23.350;2024-02-23T04:43:16;129.40;;;120.70;;
2035;SDS011;23642;42.658;23.350;2024-02-23T04:45:45;130.00;;;121.10;;
2035;SDS011;23642;42.658;23.350;2024-02-23T04:48:12;126.17;;;118.13;;
2035;SDS011;23642;42.658;23.350;2024-02-23T04:50:42;127.00;;;118.57;;
2035;SDS011;23642;42.658;23.350;2024-02-23T04:53:08;128.93;;;120.63;;
2035;SDS011;23642;42.658;23.350;2024-02-23T04:55:37;128.77;;;120.27;;
2035;SDS011;23642;42.658;23.350;2024-02-23T04:58:05;128.57;;;120.37;;
2035;SDS011;23642;42.658;23.350;2024-02-23T05:00:34;129.70;;;121.00;;
2035;SDS011;23642;42.658;23.350;2024-02-23T05:03:00;127.30;;;118.47;;
2035;SDS011;23642;42.658;23.350;2024-02-23T05:05:28;125.57;;;117.07;;
2035;SDS011;23642;42.658;23.350;2024-02-23T05:07:55;126.63;;;118.23;;
2035;SDS011;23642;42.658;23.350;2024-02-23T05:10:24;127.23;;;118.50;;
2035;SDS011;23642;42.658;23.350;2024-02-23T05:12:50;129.17;;;120.97;;
2035;SDS011;23642;42.658;23.350;2024-02-23T05:15:17;126.33;;;118.33;;
2035;SDS011;23642;42.658;23.350;2024-02-23T05:17:45;132.67;;;123.83;;
2035;SDS011;23642;42.658;23.350;2024-02-23T05:20:13;128.73;;;120.10;;
2035;SDS011;23642;42.658;23.350;2024-02-23T05:22:40;128.13;;;119.73;;
2035;SDS011;23642;42.658;23.350;2024-02-23T05:25:07;130.10;;;121.60;;
2035;SDS011;23642;42.658;23.350;2024-02-23T05:27:35;133.53;;;123.97;;
2035;SDS011;23642;42.658;23.350;2024-02-23T05:30:02;134.10;;;125.20;;
2035;SDS011;23642;42.658;23.350;2024-02-23T05:32:29;132.23;;;122.57;;
2035;SDS011;23642;42.658;23.350;2024-02-23T05:34:58;133.27;;;124.17;;
2035;SDS011;23642;42.658;23.350;2024-02-23T05:37:25;132.30;;;123.43;;
2035;SDS011;23642;42.658;23.350;2024-02-23T05:39:52;135.33;;;126.30;;
2035;SDS011;23642;42.658;23.350;2024-02-23T05:42:20;133.10;;;124.23;;
2035;SDS011;23642;42.658;23.350;2024-02-23T05:44:47;134.10;;;125.10;;
2035;SDS011;23642;42.658;23.350;2024-02-23T05:47:15;134.40;;;125.57;;
2035;SDS011;23642;42.658;23.350;2024-02-23T05:49:42;136.70;;;127.60;;
2035;SDS011;23642;42.658;23.350;2024-02-23T05:52:10;135.30;;;126.30;;
2035;SDS011;23642;42.658;23.350;2024-02-23T05:54:37;134.23;;;125.27;;
2035;SDS011;23642;42.658;23.350;2024-02-23T05:57:03;134.87;;;125.03;;
2035;SDS011;23642;42.658;23.350;2024-02-23T05:59:33;135.57;;;125.47;;
2035;SDS011;23642;42.658;23.350;2024-02-23T06:02:05;135.50;;;126.40;;
2035;SDS011;23642;42.658;23.350;2024-02-23T06:05:04;133.70;;;124.83;;
2035;SDS011;23642;42.658;23.350;2024-02-23T06:07:39;136.70;;;127.27;;
2035;SDS011;23642;42.658;23.350;2024-02-23T06:10:54;137.57;;;128.10;;
2035;SDS011;23642;42.658;23.350;2024-02-23T06:13:38;136.17;;;127.43;;
2035;SDS011;23642;42.658;23.350;2024-02-23T06:16:16;140.00;;;130.00;;
2035;SDS011;23642;42.658;23.350;2024-02-23T06:18:51;140.53;;;130.50;;
2035;SDS011;23642;42.658;23.350;2024-02-23T06:21:18;142.00;;;131.50;;
2035;SDS011;23642;42.658;23.350;2024-02-23T06:23:47;139.67;;;130.27;;
2035;SDS011;23642;42.658;23.350;2024-02-23T06:26:14;144.40;;;133.57;;
2035;SDS011;23642;42.658;23.350;2024-02-23T06:28:41;134.43;;;125.63;;
2035;SDS011;23642;42.658;23.350;2024-02-23T06:31:09;137.60;;;128.40;;
2035;SDS011;23642;42.658;23.350;2024-02-23T06:33:38;142.73;;;132.93;;
2035;SDS011;23642;42.658;23.350;2024-02-23T06:36:06;140.03;;;130.83;;
2035;SDS011;23642;42.658;23.350;2024-02-23T06:38:38;144.93;;;134.30;;
2035;SDS011;23642;42.658;23.350;2024-02-23T06:41:08;141.20;;;131.80;;
2035;SDS011;23642;42.658;23.350;2024-02-23T06:43:36;141.67;;;132.13;;
2035;SDS011;23642;42.658;23.350;2024-02-23T06:46:03;142.53;;;133.07;;
2035;SDS011;23642;42.658;23.350;2024-02-23T06:48:35;143.53;;;132.90;;
2035;SDS011;23642;42.658;23.350;2024-02-23T06:51:03;143.10;;;133.30;;
2035;SDS011;23642;42.658;23.350;2024-02-23T06:53:32;143.17;;;133.07;;
2035;SDS011;23642;42.658;23.350;2024-02-23T06:56:00;141.43;;;132.20;;
2035;SDS011;23642;42.658;23.350;2024-02-23T06:58:28;148.33;;;138.67;;
2035;SDS011;23642;42.658;23.350;2024-02-23T07:00:56;146.23;;;136.60;;
2035;SDS011;23642;42.658;23.350;2024-02-23T07:03:23;144.23;;;134.53;;
2035;SDS011;23642;42.658;23.350;2024-02-23T07:05:51;147.17;;;137.47;;
2035;SDS011;23642;42.658;23.350;2024-02-23T07:08:18;143.83;;;134.20;;
2035;SDS011;23642;42.658;23.350;2024-02-23T07:10:48;142.60;;;130.50;;
2035;SDS011;23642;42.658;23.350;2024-02-23T07:13:14;140.33;;;130.87;;
2035;SDS011;23642;42.658;23.350;2024-02-23T07:15:55;145.57;;;134.37;;
2035;SDS011;23642;42.658;23.350;2024-02-23T07:18:23;139.93;;;130.33;;
2035;SDS011;23642;42.658;23.350;2024-02-23T07:20:50;142.80;;;132.60;;
2035;SDS011;23642;42.658;23.350;2024-02-23T07:23:17;137.97;;;128.60;;
2035;SDS011;23642;42.658;23.350;2024-02-23T07:25:44;140.53;;;130.43;;
2035;SDS011;23642;42.658;23.350;2024-02-23T07:28:13;144.03;;;133.50;;
2035;SDS011;23642;42.658;23.350;2024-02-23T07:30:44;136.90;;;127.47;;
2035;SDS011;23642;42.658;23.350;2024-02-23T07:33:11;143.77;;;133.00;;
2035;SDS011;23642;42.658;23.350;2024-02-23T07:35:38;139.70;;;130.10;;
2035;SDS011;23642;42.658;23.350;2024-02-23T07:38:05;141.73;;;131.83;;
2035;SDS011;23642;42.658;23.350;2024-02-23T07:40:32;142.53;;;132.80;;
2035;SDS011;23642;42.658;23.350;2024-02-23T07:42:59;138.83;;;129.13;;
2035;SDS011;23642;42.658;23.350;2024-02-23T07:45:26;141.07;;;131.20;;
2035;SDS011;23642;42.658;23.350;2024-02-23T07:47:54;144.77;;;134.33;;
2035;SDS011;23642;42.658;23.350;2024-02-23T07:50:21;144.13;;;134.23;;
2035;SDS011;23642;42.658;23.350;2024-02-23T07:52:48;145.07;;;134.20;;
2035;SDS011;23642;42.658;23.350;2024-02-23T07:55:14;145.30;;;134.83;;
2035;SDS011;23642;42.658;23.350;2024-02-23T07:57:41;140.43;;;130.83;;
2035;SDS011;23642;42.658;23.350;2024-02-23T08:00:16;141.33;;;131.83;;
2035;SDS011;23642;42.658;23.350;2024-02-23T08:02:44;142.20;;;132.47;;
2035;SDS011;23642;42.658;23.350;2024-02-23T08:05:12;142.40;;;132.60;;
2035;SDS011;23642;42.658;23.350;2024-02-23T08:07:40;142.77;;;133.10;;
2035;SDS011;23642;42.658;23.350;2024-02-23T08:10:07;142.20;;;132.60;;
2035;SDS011;23642;42.658;23.350;2024-02-23T08:12:36;141.30;;;131.70;;
2035;SDS011;23642;42.658;23.350;2024-02-23T08:17:51;143.20;;;132.83;;
2035;SDS011;23642;42.658;23.350;2024-02-23T08:20:20;138.67;;;129.40;;
2035;SDS011;23642;42.658;23.350;2024-02-23T08:22:47;140.30;;;130.67;;
2035;SDS011;23642;42.658;23.350;2024-02-23T08:25:14;141.40;;;131.93;;
2035;SDS011;23642;42.658;23.350;2024-02-23T08:27:41;138.50;;;128.93;;
2035;SDS011;23642;42.658;23.350;2024-02-23T08:30:08;140.43;;;130.63;;
2035;SDS011;23642;42.658;23.350;2024-02-23T08:32:36;139.87;;;130.10;;
2035;SDS011;23642;42.658;23.350;2024-02-23T08:35:03;141.97;;;132.00;;
2035;SDS011;23642;42.658;23.350;2024-02-23T08:37:37;141.83;;;131.67;;
2035;SDS011;23642;42.658;23.350;2024-02-23T08:40:05;140.67;;;130.83;;
2035;SDS011;23642;42.658;23.350;2024-02-23T08:42:34;140.17;;;130.67;;
2035;SDS011;23642;42.658;23.350;2024-02-23T08:45:03;138.00;;;129.00;;
2035;SDS011;23642;42.658;23.350;2024-02-23T08:47:30;136.37;;;127.20;;
2035;SDS011;23642;42.658;23.350;2024-02-23T08:50:00;139.27;;;129.93;;
2035;SDS011;23642;42.658;23.350;2024-02-23T08:52:29;138.10;;;128.73;;
2035;SDS011;23642;42.658;23.350;2024-02-23T08:54:58;138.70;;;129.27;;
2035;SDS011;23642;42.658;23.350;2024-02-23T08:57:25;138.40;;;128.93;;
2035;SDS011;23642;42.658;23.350;2024-02-23T09:05:50;139.30;;;129.57;;
2035;SDS011;23642;42.658;23.350;2024-02-23T09:08:17;137.60;;;128.40;;
2035;SDS011;23642;42.658;23.350;2024-02-23T09:10:46;136.63;;;127.23;;
2035;SDS011;23642;42.658;23.350;2024-02-23T09:13:13;135.50;;;125.73;;
2035;SDS011;23642;42.658;23.350;2024-02-23T09:15:40;133.47;;;124.50;;
2035;SDS011;23642;42.658;23.350;2024-02-23T09:18:08;135.00;;;125.83;;
2035;SDS011;23642;42.658;23.350;2024-02-23T09:20:35;136.57;;;127.10;;
2035;SDS011;23642;42.658;23.350;2024-02-23T09:23:03;134.53;;;125.50;;
2035;SDS011;23642;42.658;23.350;2024-02-23T09:25:37;133.80;;;124.63;;
2035;SDS011;23642;42.658;23.350;2024-02-23T09:28:08;135.17;;;126.10;;
2035;SDS011;23642;42.658;23.350;2024-02-23T09:30:36;130.73;;;121.87;;
2035;SDS011;23642;42.658;23.350;2024-02-23T09:33:03;135.30;;;126.00;;
2035;SDS011;23642;42.658;23.350;2024-02-23T09:35:31;132.73;;;124.10;;
2035;SDS011;23642;42.658;23.350;2024-02-23T09:38:00;134.00;;;125.13;;
2035;SDS011;23642;42.658;23.350;2024-02-23T09:40:38;129.63;;;121.33;;
2035;SDS011;23642;42.658;23.350;2024-02-23T09:43:27;131.87;;;123.47;;
2035;SDS011;23642;42.658;23.350;2024-02-23T09:45:57;131.60;;;123.37;;
2035;SDS011;23642;42.658;23.350;2024-02-23T09:48:26;133.77;;;125.50;;
2035;SDS011;23642;42.658;23.350;2024-02-23T09:53:47;136.67;;;127.17;;
2035;SDS011;23642;42.658;23.350;2024-02-23T09:56:20;135.03;;;126.67;;
2035;SDS011;23642;42.658;23.350;2024-02-23T09:58:59;134.67;;;126.00;;
2035;SDS011;23642;42.658;23.350;2024-02-23T10:01:33;129.83;;;121.67;;
2035;SDS011;23642;42.658;23.350;2024-02-23T10:04:01;128.97;;;121.07;;
2035;SDS011;23642;42.658;23.350;2024-02-23T10:06:32;131.67;;;123.10;;
2035;SDS011;23642;42.658;23.350;2024-02-23T10:09:18;137.97;;;129.17;;
2035;SDS011;23642;42.658;23.350;2024-02-23T10:11:57;135.40;;;126.80;;
2035;SDS011;23642;42.658;23.350;2024-02-23T10:14:38;134.45;;;125.95;;
2035;SDS011;23642;42.658;23.350;2024-02-23T10:17:15;130.90;;;122.40;;
2035;SDS011;23642;42.658;23.350;2024-02-23T10:19:44;130.73;;;122.53;;
2035;SDS011;23642;42.658;23.350;2024-02-23T10:25:50;129.37;;;121.47;;
2035;SDS011;23642;42.658;23.350;2024-02-23T10:28:17;130.90;;;122.93;;
2035;SDS011;23642;42.658;23.350;2024-02-23T10:30:49;128.97;;;120.17;;
2035;SDS011;23642;42.658;23.350;2024-02-23T10:33:15;130.27;;;122.37;;
2035;SDS011;23642;42.658;23.350;2024-02-23T10:35:46;129.60;;;121.57;;
2035;SDS011;23642;42.658;23.350;2024-02-23T10:38:19;127.17;;;119.37;;
2035;SDS011;23642;42.658;23.350;2024-02-23T10:40:58;134.50;;;126.40;;
2035;SDS011;23642;42.658;23.350;2024-02-23T10:43:29;133.33;;;124.77;;
2035;SDS011;23642;42.658;23.350;2024-02-23T10:49:08;130.17;;;121.97;;
2035;SDS011;23642;42.658;23.350;2024-02-23T10:51:36;132.47;;;124.10;;
2035;SDS011;23642;42.658;23.350;2024-02-23T10:54:06;132.37;;;124.27;;
2035;SDS011;23642;42.658;23.350;2024-02-23T10:56:32;131.40;;;123.50;;
2035;SDS011;23642;42.658;23.350;2024-02-23T10:59:00;134.70;;;126.70;;
2035;SDS011;23642;42.658;23.350;2024-02-23T11:01:26;135.00;;;126.90;;
2035;SDS011;23642;42.658;23.350;2024-02-23T11:03:54;128.30;;;120.50;;
2035;SDS011;23642;42.658;23.350;2024-02-23T11:06:29;128.87;;;121.17;;
2035;SDS011;23642;42.658;23.350;2024-02-23T11:09:08;132.27;;;124.27;;
2035;SDS011;23642;42.658;23.350;2024-02-23T11:11:39;132.43;;;124.10;;
2035;SDS011;23642;42.658;23.350;2024-02-23T11:14:07;134.40;;;126.10;;
2035;SDS011;23642;42.658;23.350;2024-02-23T11:16:38;131.63;;;123.63;;
2035;SDS011;23642;42.658;23.350;2024-02-23T11:19:06;130.70;;;122.93;;
2035;SDS011;23642;42.658;23.350;2024-02-23T11:21:40;128.97;;;121.37;;
2035;SDS011;23642;42.658;23.350;2024-02-23T11:24:07;131.23;;;123.43;;
2035;SDS011;23642;42.658;23.350;2024-02-23T11:26:38;127.50;;;119.80;;
2035;SDS011;23642;42.658;23.350;2024-02-23T11:29:10;126.70;;;119.30;;
2035;SDS011;23642;42.658;23.350;2024-02-23T11:31:44;127.40;;;119.70;;
2035;SDS011;23642;42.658;23.350;2024-02-23T11:34:14;129.20;;;121.07;;
2035;SDS011;23642;42.658;23.350;2024-02-23T11:36:52;126.30;;;118.90;;
2035;SDS011;23642;42.658;23.350;2024-02-23T11:39:33;125.23;;;117.93;;
2035;SDS011;23642;42.658;23.350;2024-02-23T11:42:04;130.17;;;122.37;;
2035;SDS011;23642;42.658;23.350;2024-02-23T11:44:35;127.30;;;119.80;;
2035;SDS011;23642;42.658;23.350;2024-02-23T11:47:02;123.37;;;115.87;;
2035;SDS011;23642;42.658;23.350;2024-02-23T11:52:40;125.70;;;118.30;;
2035;SDS011;23642;42.658;23.350;2024-02-23T11:55:10;124.77;;;117.23;;
2035;SDS011;23642;42.658;23.350;2024-02-23T11:57:40;126.90;;;119.30;;
2035;SDS011;23642;42.658;23.350;2024-02-23T12:00:07;124.07;;;116.77;;
2035;SDS011;23642;42.658;23.350;2024-02-23T12:02:37;128.30;;;120.40;;
2035;SDS011;23642;42.658;23.350;2024-02-23T12:05:04;124.50;;;116.20;;
2035;SDS011;23642;42.658;23.350;2024-02-23T12:07:31;129.10;;;120.73;;
2035;SDS011;23642;42.658;23.350;2024-02-23T12:10:05;129.27;;;121.03;;
2035;SDS011;23642;42.658;23.350;2024-02-23T12:12:40;126.80;;;119.03;;
2035;SDS011;23642;42.658;23.350;2024-02-23T12:15:10;123.03;;;115.63;;
2035;SDS011;23642;42.658;23.350;2024-02-23T12:17:46;128.13;;;118.60;;
2035;SDS011;23642;42.658;23.350;2024-02-23T12:20:14;127.87;;;120.10;;
2035;SDS011;23642;42.658;23.350;2024-02-23T12:22:42;126.67;;;119.17;;
2035;SDS011;23642;42.658;23.350;2024-02-23T12:27:55;124.37;;;116.97;;
2035;SDS011;23642;42.658;23.350;2024-02-23T12:30:25;124.17;;;116.87;;
2035;SDS011;23642;42.658;23.350;2024-02-23T12:33:02;124.67;;;116.63;;
2035;SDS011;23642;42.658;23.350;2024-02-23T12:35:32;124.03;;;116.53;;
2035;SDS011;23642;42.658;23.350;2024-02-23T12:38:03;126.67;;;119.37;;
2035;SDS011;23642;42.658;23.350;2024-02-23T12:40:31;128.60;;;121.30;;
2035;SDS011;23642;42.658;23.350;2024-02-23T12:42:58;125.60;;;118.43;;
2035;SDS011;23642;42.658;23.350;2024-02-23T12:45:25;128.00;;;120.40;;
2035;SDS011;23642;42.658;23.350;2024-02-23T12:47:52;124.67;;;117.37;;
2035;SDS011;23642;42.658;23.350;2024-02-23T12:50:19;126.23;;;118.93;;
2035;SDS011;23642;42.658;23.350;2024-02-23T12:52:47;125.60;;;118.37;;
2035;SDS011;23642;42.658;23.350;2024-02-23T12:55:16;127.20;;;119.60;;
2035;SDS011;23642;42.658;23.350;2024-02-23T12:57:46;125.70;;;118.40;;
2035;SDS011;23642;42.658;23.350;2024-02-23T13:00:13;126.10;;;118.77;;
2035;SDS011;23642;42.658;23.350;2024-02-23T13:02:41;125.97;;;117.83;;
2035;SDS011;23642;42.658;23.350;2024-02-23T13:05:08;125.40;;;118.10;;
2035;SDS011;23642;42.658;23.350;2024-02-23T13:07:38;120.57;;;113.47;;
2035;SDS011;23642;42.658;23.350;2024-02-23T13:10:07;122.40;;;115.03;;
2035;SDS011;23642;42.658;23.350;2024-02-23T13:12:34;124.40;;;117.13;;
2035;SDS011;23642;42.658;23.350;2024-02-23T13:15:04;124.53;;;117.23;;
2035;SDS011;23642;42.658;23.350;2024-02-23T13:17:31;124.57;;;117.10;;
2035;SDS011;23642;42.658;23.350;2024-02-23T13:19:59;125.97;;;118.17;;
2035;SDS011;23642;42.658;23.350;2024-02-23T13:22:26;125.90;;;118.37;;
2035;SDS011;23642;42.658;23.350;2024-02-23T13:24:54;124.20;;;116.80;;
2035;SDS011;23642;42.658;23.350;2024-02-23T13:27:21;122.50;;;115.20;;
2035;SDS011;23642;42.658;23.350;2024-02-23T13:29:48;125.37;;;118.07;;
2035;SDS011;23642;42.658;23.350;2024-02-23T13:32:18;123.67;;;116.20;;
2035;SDS011;23642;42.658;23.350;2024-02-23T13:34:46;126.90;;;118.60;;
2035;SDS011;23642;42.658;23.350;2024-02-23T13:37:13;121.87;;;114.63;;
2035;SDS011;23642;42.658;23.350;2024-02-23T13:39:50;123.47;;;115.87;;
2035;SDS011;23642;42.658;23.350;2024-02-23T13:42:18;125.63;;;118.30;;
2035;SDS011;23642;42.658;23.350;2024-02-23T13:44:46;126.40;;;118.50;;
2035;SDS011;23642;42.658;23.350;2024-02-23T13:47:17;125.10;;;117.80;;
2035;SDS011;23642;42.658;23.350;2024-02-23T13:49:44;125.50;;;118.00;;
2035;SDS011;23642;42.658;23.350;2024-02-23T13:52:14;123.80;;;116.40;;
2035;SDS011;23642;42.658;23.350;2024-02-23T13:54:42;123.40;;;116.20;;
2035;SDS011;23642;42.658;23.350;2024-02-23T13:57:16;125.80;;;118.30;;
2035;SDS011;23642;42.658;23.350;2024-02-23T13:59:43;127.53;;;119.70;;
2035;SDS011;23642;42.658;23.350;2024-02-23T14:02:13;124.90;;;117.50;;
2035;SDS011;23642;42.658;23.350;2024-02-23T14:08:09;128.53;;;119.70;;
2035;SDS011;23642;42.658;23.350;2024-02-23T14:10:39;121.27;;;114.03;;
2035;SDS011;23642;42.658;23.350;2024-02-23T14:13:16;126.03;;;118.67;;
2035;SDS011;23642;42.658;23.350;2024-02-23T14:15:46;127.33;;;119.83;;
2035;SDS011;23642;42.658;23.350;2024-02-23T14:18:13;130.23;;;121.60;;
2035;SDS011;23642;42.658;23.350;2024-02-23T14:20:46;130.47;;;122.10;;
2035;SDS011;23642;42.658;23.350;2024-02-23T14:23:22;128.30;;;120.30;;
2035;SDS011;23642;42.658;23.350;2024-02-23T14:26:00;129.77;;;121.87;;
2035;SDS011;23642;42.658;23.350;2024-02-23T14:28:49;125.27;;;117.97;;
2035;SDS011;23642;42.658;23.350;2024-02-23T14:31:22;127.77;;;120.27;;
2035;SDS011;23642;42.658;23.350;2024-02-23T14:33:51;127.57;;;120.17;;
2035;SDS011;23642;42.658;23.350;2024-02-23T14:36:42;125.93;;;118.20;;